sensor_id;sensor_type;location;lat;lon;timestamp;P1;durP1;ratioP1;P2;durP2;ratioP2
19593;SDS011;9944;48.240;16.478;2023-10-19T00:03:34;7.45;;;5.70;;
19593;SDS011;9944;48.240;16.478;2023-10-19T00:07:37;8.23;;;6.00;;
19593;SDS011;9944;48.240;16.478;2023-10-19T00:11:42;9.23;;;6.20;;
19593;SDS011;9944;48.240;16.478;2023-10-19T00:15:45;8.90;;;6.00;;
19593;SDS011;9944;48.240;16.478;2023-10-19T00:19:53;10.48;;;6.28;;
19593;SDS011;9944;48.240;16.478;2023-10-19T00:24:20;9.68;;;6.53;;
19593;SDS011;9944;48.240;16.478;2023-10-19T00:28:26;9.38;;;6.18;;
19593;SDS011;9944;48.240;16.478;2023-10-19T00:32:30;9.77;;;6.03;;
19593;SDS011;9944;48.240;16.478;2023-10-19T00:36:33;9.68;;;5.82;;
19593;SDS011;9944;48.240;16.478;2023-10-19T00:40:40;10.63;;;6.63;;
19593;SDS011;9944;48.240;16.478;2023-10-19T00:44:50;9.10;;;5.85;;
19593;SDS011;9944;48.240;16.478;2023-10-19T00:49:00;9.85;;;6.95;;
19593;SDS011;9944;48.240;16.478;2023-10-19T00:53:07;9.98;;;6.72;;
19593;SDS011;9944;48.240;16.478;2023-10-19T00:57:14;13.05;;;7.57;;
19593;SDS011;9944;48.240;16.478;2023-10-19T01:01:23;9.20;;;6.28;;
19593;SDS011;9944;48.240;16.478;2023-10-19T01:05:31;11.73;;;7.03;;
19593;SDS011;9944;48.240;16.478;2023-10-19T01:09:39;12.85;;;7.07;;
19593;SDS011;9944;48.240;16.478;2023-10-19T01:13:46;10.63;;;7.45;;
19593;SDS011;9944;48.240;16.478;2023-10-19T01:17:52;10.95;;;7.45;;
19593;SDS011;9944;48.240;16.478;2023-10-19T01:21:59;10.68;;;7.63;;
19593;SDS011;9944;48.240;16.478;2023-10-19T01:26:07;9.23;;;7.13;;
19593;SDS011;9944;48.240;16.478;2023-10-19T01:30:11;13.40;;;8.02;;
19593;SDS011;9944;48.240;16.478;2023-10-19T01:34:16;9.02;;;6.50;;
19593;SDS011;9944;48.240;16.478;2023-10-19T01:38:22;11.40;;;7.25;;
19593;SDS011;9944;48.240;16.478;2023-10-19T01:42:27;9.50;;;6.78;;
19593;SDS011;9944;48.240;16.478;2023-10-19T01:46:33;9.77;;;7.47;;
19593;SDS011;9944;48.240;16.478;2023-10-19T01:50:38;10.23;;;7.45;;
19593;SDS011;9944;48.240;16.478;2023-10-19T01:54:40;10.88;;;7.47;;
19593;SDS011;9944;48.240;16.478;2023-10-19T01:58:46;11.30;;;7.05;;
19593;SDS011;9944;48.240;16.478;2023-10-19T02:02:50;10.52;;;7.80;;
19593;SDS011;9944;48.240;16.478;2023-10-19T02:06:53;11.90;;;7.60;;
19593;SDS011;9944;48.240;16.478;2023-10-19T02:10:57;11.43;;;7.05;;
19593;SDS011;9944;48.240;16.478;2023-10-19T02:15:06;10.70;;;7.68;;
19593;SDS011;9944;48.240;16.478;2023-10-19T02:19:10;10.32;;;7.28;;
19593;SDS011;9944;48.240;16.478;2023-10-19T02:23:14;13.68;;;8.05;;
19593;SDS011;9944;48.240;16.478;2023-10-19T02:27:18;12.13;;;8.02;;
19593;SDS011;9944;48.240;16.478;2023-10-19T02:31:36;13.18;;;7.53;;
19593;SDS011;9944;48.240;16.478;2023-10-19T02:35:42;11.27;;;7.93;;
19593;SDS011;9944;48.240;16.478;2023-10-19T02:39:45;12.73;;;8.30;;
19593;SDS011;9944;48.240;16.478;2023-10-19T02:43:50;9.32;;;6.95;;
19593;SDS011;9944;48.240;16.478;2023-10-19T02:48:05;11.75;;;8.18;;
19593;SDS011;9944;48.240;16.478;2023-10-19T02:52:13;12.13;;;8.48;;
19593;SDS011;9944;48.240;16.478;2023-10-19T02:56:18;14.65;;;8.20;;
19593;SDS011;9944;48.240;16.478;2023-10-19T03:00:22;14.77;;;8.73;;
19593;SDS011;9944;48.240;16.478;2023-10-19T03:04:36;11.02;;;8.20;;
19593;SDS011;9944;48.240;16.478;2023-10-19T03:08:39;10.75;;;7.82;;
19593;SDS011;9944;48.240;16.478;2023-10-19T03:12:43;11.23;;;8.48;;
19593;SDS011;9944;48.240;16.478;2023-10-19T03:16:46;11.32;;;8.52;;
19593;SDS011;9944;48.240;16.478;2023-10-19T03:20:52;11.52;;;7.95;;
19593;SDS011;9944;48.240;16.478;2023-10-19T03:24:56;12.48;;;8.60;;
19593;SDS011;9944;48.240;16.478;2023-10-19T03:29:13;11.50;;;8.70;;
19593;SDS011;9944;48.240;16.478;2023-10-19T03:33:18;12.10;;;8.68;;
19593;SDS011;9944;48.240;16.478;2023-10-19T03:37:24;12.50;;;9.15;;
19593;SDS011;9944;48.240;16.478;2023-10-19T03:41:32;11.27;;;7.97;;
19593;SDS011;9944;48.240;16.478;2023-10-19T03:45:37;12.00;;;8.52;;
19593;SDS011;9944;48.240;16.478;2023-10-19T03:49:45;12.27;;;8.50;;
19593;SDS011;9944;48.240;16.478;2023-10-19T03:53:51;12.68;;;8.63;;
19593;SDS011;9944;48.240;16.478;2023-10-19T03:57:56;12.77;;;8.57;;
19593;SDS011;9944;48.240;16.478;2023-10-19T04:02:00;11.35;;;7.78;;
19593;SDS011;9944;48.240;16.478;2023-10-19T04:06:11;11.70;;;8.35;;
19593;SDS011;9944;48.240;16.478;2023-10-19T04:10:17;13.40;;;8.88;;
19593;SDS011;9944;48.240;16.478;2023-10-19T04:14:32;12.82;;;9.02;;
19593;SDS011;9944;48.240;16.478;2023-10-19T04:18:36;12.57;;;8.45;;
19593;SDS011;9944;48.240;16.478;2023-10-19T04:22:46;13.80;;;8.85;;
19593;SDS011;9944;48.240;16.478;2023-10-19T04:26:51;12.95;;;8.90;;
19593;SDS011;9944;48.240;16.478;2023-10-19T04:30:57;10.73;;;8.10;;
19593;SDS011;9944;48.240;16.478;2023-10-19T04:35:04;14.90;;;8.45;;
19593;SDS011;9944;48.240;16.478;2023-10-19T04:39:10;9.98;;;7.80;;
19593;SDS011;9944;48.240;16.478;2023-10-19T04:43:17;14.13;;;8.32;;
19593;SDS011;9944;48.240;16.478;2023-10-19T04:47:21;12.50;;;8.48;;
19593;SDS011;9944;48.240;16.478;2023-10-19T04:51:27;11.20;;;7.70;;
19593;SDS011;9944;48.240;16.478;2023-10-19T04:55:31;13.57;;;8.77;;
19593;SDS011;9944;48.240;16.478;2023-10-19T04:59:37;12.95;;;8.57;;
19593;SDS011;9944;48.240;16.478;2023-10-19T05:03:40;12.88;;;8.88;;
19593;SDS011;9944;48.240;16.478;2023-10-19T05:07:44;11.52;;;8.35;;
19593;SDS011;9944;48.240;16.478;2023-10-19T05:11:47;14.48;;;8.30;;
19593;SDS011;9944;48.240;16.478;2023-10-19T05:15:54;14.57;;;8.43;;
19593;SDS011;9944;48.240;16.478;2023-10-19T05:19:58;14.85;;;8.05;;
19593;SDS011;9944;48.240;16.478;2023-10-19T05:24:01;11.55;;;8.20;;
19593;SDS011;9944;48.240;16.478;2023-10-19T05:28:04;16.42;;;8.75;;
19593;SDS011;9944;48.240;16.478;2023-10-19T05:32:10;13.52;;;8.07;;
19593;SDS011;9944;48.240;16.478;2023-10-19T05:36:13;12.60;;;8.73;;
19593;SDS011;9944;48.240;16.478;2023-10-19T05:40:17;13.05;;;8.73;;
19593;SDS011;9944;48.240;16.478;2023-10-19T05:44:21;15.15;;;9.50;;
19593;SDS011;9944;48.240;16.478;2023-10-19T05:48:28;12.60;;;8.88;;
19593;SDS011;9944;48.240;16.478;2023-10-19T05:52:32;12.18;;;9.48;;
19593;SDS011;9944;48.240;16.478;2023-10-19T05:56:35;14.82;;;8.85;;
19593;SDS011;9944;48.240;16.478;2023-10-19T06:00:38;12.40;;;9.05;;
19593;SDS011;9944;48.240;16.478;2023-10-19T06:04:43;14.50;;;9.15;;
19593;SDS011;9944;48.240;16.478;2023-10-19T06:08:46;13.25;;;9.68;;
19593;SDS011;9944;48.240;16.478;2023-10-19T06:12:51;14.05;;;9.70;;
19593;SDS011;9944;48.240;16.478;2023-10-19T06:17:13;14.38;;;9.57;;
19593;SDS011;9944;48.240;16.478;2023-10-19T06:21:22;15.68;;;9.80;;
19593;SDS011;9944;48.240;16.478;2023-10-19T06:25:25;13.85;;;8.85;;
19593;SDS011;9944;48.240;16.478;2023-10-19T06:29:28;14.77;;;9.80;;
19593;SDS011;9944;48.240;16.478;2023-10-19T06:33:32;13.02;;;9.35;;
19593;SDS011;9944;48.240;16.478;2023-10-19T06:37:37;12.57;;;9.02;;
19593;SDS011;9944;48.240;16.478;2023-10-19T06:41:40;14.02;;;9.23;;
19593;SDS011;9944;48.240;16.478;2023-10-19T06:45:43;15.20;;;9.13;;
19593;SDS011;9944;48.240;16.478;2023-10-19T06:49:47;14.38;;;8.88;;
19593;SDS011;9944;48.240;16.478;2023-10-19T06:53:51;13.10;;;8.80;;
19593;SDS011;9944;48.240;16.478;2023-10-19T06:57:54;13.27;;;8.48;;
19593;SDS011;9944;48.240;16.478;2023-10-19T07:01:58;13.27;;;8.93;;
19593;SDS011;9944;48.240;16.478;2023-10-19T07:06:03;16.08;;;9.25;;
19593;SDS011;9944;48.240;16.478;2023-10-19T07:10:14;14.68;;;9.85;;
19593;SDS011;9944;48.240;16.478;2023-10-19T07:14:19;15.70;;;9.75;;
19593;SDS011;9944;48.240;16.478;2023-10-19T07:18:24;13.73;;;9.10;;
19593;SDS011;9944;48.240;16.478;2023-10-19T07:22:26;14.23;;;9.23;;
19593;SDS011;9944;48.240;16.478;2023-10-19T07:26:31;16.40;;;9.27;;
19593;SDS011;9944;48.240;16.478;2023-10-19T07:30:43;13.73;;;9.32;;
19593;SDS011;9944;48.240;16.478;2023-10-19T07:34:48;13.73;;;9.25;;
19593;SDS011;9944;48.240;16.478;2023-10-19T07:38:51;15.23;;;9.13;;
19593;SDS011;9944;48.240;16.478;2023-10-19T07:42:56;15.70;;;9.90;;
19593;SDS011;9944;48.240;16.478;2023-10-19T07:46:59;14.45;;;9.02;;
19593;SDS011;9944;48.240;16.478;2023-10-19T07:51:02;13.48;;;8.57;;
19593;SDS011;9944;48.240;16.478;2023-10-19T07:55:05;14.27;;;8.77;;
19593;SDS011;9944;48.240;16.478;2023-10-19T07:59:11;13.90;;;9.43;;
19593;SDS011;9944;48.240;16.478;2023-10-19T08:03:14;13.45;;;8.75;;
19593;SDS011;9944;48.240;16.478;2023-10-19T08:07:18;13.63;;;9.48;;
19593;SDS011;9944;48.240;16.478;2023-10-19T08:11:21;14.05;;;9.48;;
19593;SDS011;9944;48.240;16.478;2023-10-19T08:15:26;15.77;;;10.00;;
19593;SDS011;9944;48.240;16.478;2023-10-19T08:19:31;14.05;;;9.65;;
19593;SDS011;9944;48.240;16.478;2023-10-19T08:23:35;14.07;;;9.23;;
19593;SDS011;9944;48.240;16.478;2023-10-19T08:27:38;13.05;;;8.90;;
19593;SDS011;9944;48.240;16.478;2023-10-19T08:31:44;13.73;;;9.10;;
19593;SDS011;9944;48.240;16.478;2023-10-19T08:35:48;12.43;;;8.77;;
19593;SDS011;9944;48.240;16.478;2023-10-19T08:39:52;12.60;;;8.35;;
19593;SDS011;9944;48.240;16.478;2023-10-19T08:43:56;13.07;;;8.52;;
19593;SDS011;9944;48.240;16.478;2023-10-19T08:48:01;10.45;;;7.68;;
19593;SDS011;9944;48.240;16.478;2023-10-19T08:52:06;12.85;;;8.75;;
19593;SDS011;9944;48.240;16.478;2023-10-19T08:56:11;14.00;;;9.60;;
19593;SDS011;9944;48.240;16.478;2023-10-19T09:00:15;11.93;;;8.45;;
19593;SDS011;9944;48.240;16.478;2023-10-19T09:04:23;12.88;;;9.15;;
19593;SDS011;9944;48.240;16.478;2023-10-19T09:08:27;13.98;;;8.95;;
19593;SDS011;9944;48.240;16.478;2023-10-19T09:12:40;13.55;;;9.52;;
19593;SDS011;9944;48.240;16.478;2023-10-19T09:16:53;15.02;;;9.85;;
19593;SDS011;9944;48.240;16.478;2023-10-19T09:21:00;15.35;;;9.88;;
19593;SDS011;9944;48.240;16.478;2023-10-19T09:25:09;12.90;;;9.45;;
19593;SDS011;9944;48.240;16.478;2023-10-19T09:29:12;11.80;;;8.48;;
19593;SDS011;9944;48.240;16.478;2023-10-19T09:33:20;14.45;;;9.30;;
19593;SDS011;9944;48.240;16.478;2023-10-19T09:37:27;12.73;;;8.88;;
19593;SDS011;9944;48.240;16.478;2023-10-19T09:41:30;13.18;;;9.05;;
19593;SDS011;9944;48.240;16.478;2023-10-19T09:45:37;12.38;;;8.60;;
19593;SDS011;9944;48.240;16.478;2023-10-19T09:49:44;16.05;;;9.73;;
19593;SDS011;9944;48.240;16.478;2023-10-19T09:53:57;14.40;;;9.40;;
19593;SDS011;9944;48.240;16.478;2023-10-19T09:58:05;13.00;;;8.90;;
19593;SDS011;9944;48.240;16.478;2023-10-19T10:02:13;11.40;;;8.68;;
19593;SDS011;9944;48.240;16.478;2023-10-19T10:06:27;12.77;;;8.65;;
19593;SDS011;9944;48.240;16.478;2023-10-19T10:10:32;12.23;;;7.88;;
19593;SDS011;9944;48.240;16.478;2023-10-19T10:14:37;11.60;;;8.00;;
19593;SDS011;9944;48.240;16.478;2023-10-19T10:18:41;10.57;;;7.38;;
19593;SDS011;9944;48.240;16.478;2023-10-19T10:22:45;11.77;;;8.00;;
19593;SDS011;9944;48.240;16.478;2023-10-19T10:27:24;11.40;;;8.25;;
19593;SDS011;9944;48.240;16.478;2023-10-19T10:31:27;12.15;;;8.32;;
19593;SDS011;9944;48.240;16.478;2023-10-19T10:39:58;9.77;;;7.40;;
19593;SDS011;9944;48.240;16.478;2023-10-19T10:44:04;11.43;;;7.72;;
19593;SDS011;9944;48.240;16.478;2023-10-19T10:48:11;9.02;;;6.80;;
19593;SDS011;9944;48.240;16.478;2023-10-19T10:52:25;11.88;;;7.55;;
19593;SDS011;9944;48.240;16.478;2023-10-19T10:56:31;10.55;;;7.32;;
19593;SDS011;9944;48.240;16.478;2023-10-19T11:00:43;9.85;;;7.10;;
19593;SDS011;9944;48.240;16.478;2023-10-19T11:04:48;12.70;;;8.07;;
19593;SDS011;9944;48.240;16.478;2023-10-19T11:08:52;9.55;;;7.25;;
19593;SDS011;9944;48.240;16.478;2023-10-19T11:12:59;10.13;;;7.22;;
19593;SDS011;9944;48.240;16.478;2023-10-19T11:17:14;10.45;;;7.68;;
19593;SDS011;9944;48.240;16.478;2023-10-19T11:21:17;9.75;;;7.45;;
19593;SDS011;9944;48.240;16.478;2023-10-19T11:25:21;10.27;;;6.63;;
19593;SDS011;9944;48.240;16.478;2023-10-19T11:29:25;11.25;;;7.32;;
19593;SDS011;9944;48.240;16.478;2023-10-19T11:33:30;9.07;;;7.00;;
19593;SDS011;9944;48.240;16.478;2023-10-19T11:37:45;13.63;;;9.40;;
19593;SDS011;9944;48.240;16.478;2023-10-19T11:41:48;11.90;;;8.50;;
19593;SDS011;9944;48.240;16.478;2023-10-19T11:45:51;13.65;;;10.43;;
19593;SDS011;9944;48.240;16.478;2023-10-19T11:49:56;16.45;;;10.98;;
19593;SDS011;9944;48.240;16.478;2023-10-19T11:54:00;14.73;;;10.55;;
19593;SDS011;9944;48.240;16.478;2023-10-19T11:58:03;16.77;;;10.57;;
19593;SDS011;9944;48.240;16.478;2023-10-19T12:02:06;17.65;;;11.70;;
19593;SDS011;9944;48.240;16.478;2023-10-19T12:06:13;16.05;;;10.82;;
19593;SDS011;9944;48.240;16.478;2023-10-19T12:10:21;16.25;;;11.90;;
19593;SDS011;9944;48.240;16.478;2023-10-19T12:14:34;16.30;;;11.55;;
19593;SDS011;9944;48.240;16.478;2023-10-19T12:18:38;18.98;;;12.43;;
19593;SDS011;9944;48.240;16.478;2023-10-19T12:22:43;18.70;;;12.05;;
19593;SDS011;9944;48.240;16.478;2023-10-19T12:26:46;16.73;;;10.80;;
19593;SDS011;9944;48.240;16.478;2023-10-19T12:30:49;16.35;;;11.30;;
19593;SDS011;9944;48.240;16.478;2023-10-19T12:34:52;15.93;;;10.50;;
19593;SDS011;9944;48.240;16.478;2023-10-19T12:39:01;18.77;;;11.10;;
19593;SDS011;9944;48.240;16.478;2023-10-19T12:43:07;17.83;;;11.82;;
19593;SDS011;9944;48.240;16.478;2023-10-19T12:47:12;17.38;;;10.75;;
19593;SDS011;9944;48.240;16.478;2023-10-19T12:51:15;14.93;;;10.27;;
19593;SDS011;9944;48.240;16.478;2023-10-19T12:55:26;15.38;;;10.10;;
19593;SDS011;9944;48.240;16.478;2023-10-19T12:59:29;14.48;;;9.80;;
19593;SDS011;9944;48.240;16.478;2023-10-19T13:03:33;14.48;;;10.02;;
19593;SDS011;9944;48.240;16.478;2023-10-19T13:07:38;13.73;;;9.82;;
19593;SDS011;9944;48.240;16.478;2023-10-19T13:11:43;14.70;;;9.13;;
19593;SDS011;9944;48.240;16.478;2023-10-19T13:15:47;19.52;;;9.18;;
19593;SDS011;9944;48.240;16.478;2023-10-19T13:19:51;13.57;;;8.98;;
19593;SDS011;9944;48.240;16.478;2023-10-19T13:23:57;14.02;;;9.63;;
19593;SDS011;9944;48.240;16.478;2023-10-19T13:28:02;14.15;;;8.45;;
19593;SDS011;9944;48.240;16.478;2023-10-19T13:32:06;14.02;;;9.20;;
19593;SDS011;9944;48.240;16.478;2023-10-19T13:36:09;11.77;;;8.15;;
19593;SDS011;9944;48.240;16.478;2023-10-19T13:40:12;13.57;;;8.27;;
19593;SDS011;9944;48.240;16.478;2023-10-19T13:44:17;13.75;;;8.65;;
19593;SDS011;9944;48.240;16.478;2023-10-19T13:48:22;12.10;;;8.05;;
19593;SDS011;9944;48.240;16.478;2023-10-19T13:52:25;11.20;;;7.72;;
19593;SDS011;9944;48.240;16.478;2023-10-19T13:56:28;12.70;;;8.02;;
19593;SDS011;9944;48.240;16.478;2023-10-19T14:00:33;11.82;;;7.90;;
19593;SDS011;9944;48.240;16.478;2023-10-19T14:04:42;14.93;;;8.75;;
19593;SDS011;9944;48.240;16.478;2023-10-19T14:08:48;14.80;;;8.32;;
19593;SDS011;9944;48.240;16.478;2023-10-19T14:12:50;10.23;;;8.05;;
19593;SDS011;9944;48.240;16.478;2023-10-19T14:16:57;11.13;;;8.15;;
19593;SDS011;9944;48.240;16.478;2023-10-19T14:21:09;11.38;;;7.85;;
19593;SDS011;9944;48.240;16.478;2023-10-19T14:25:14;12.05;;;8.02;;
19593;SDS011;9944;48.240;16.478;2023-10-19T14:29:26;11.15;;;7.63;;
19593;SDS011;9944;48.240;16.478;2023-10-19T14:33:30;9.50;;;6.65;;
19593;SDS011;9944;48.240;16.478;2023-10-19T14:37:34;12.93;;;7.20;;
19593;SDS011;9944;48.240;16.478;2023-10-19T14:41:40;12.80;;;7.75;;
19593;SDS011;9944;48.240;16.478;2023-10-19T14:45:43;11.20;;;6.97;;
19593;SDS011;9944;48.240;16.478;2023-10-19T14:49:47;8.23;;;5.95;;
19593;SDS011;9944;48.240;16.478;2023-10-19T14:53:50;10.13;;;6.70;;
19593;SDS011;9944;48.240;16.478;2023-10-19T14:57:56;11.07;;;6.47;;
19593;SDS011;9944;48.240;16.478;2023-10-19T15:01:58;10.80;;;6.22;;
19593;SDS011;9944;48.240;16.478;2023-10-19T15:06:04;9.38;;;6.05;;
19593;SDS011;9944;48.240;16.478;2023-10-19T15:10:08;9.55;;;5.75;;
19593;SDS011;9944;48.240;16.478;2023-10-19T15:14:13;9.80;;;5.88;;
19593;SDS011;9944;48.240;16.478;2023-10-19T15:18:17;8.52;;;5.60;;
19593;SDS011;9944;48.240;16.478;2023-10-19T15:22:22;9.65;;;6.50;;
19593;SDS011;9944;48.240;16.478;2023-10-19T15:26:25;10.05;;;6.85;;
19593;SDS011;9944;48.240;16.478;2023-10-19T15:30:29;12.52;;;7.38;;
19593;SDS011;9944;48.240;16.478;2023-10-19T15:34:32;15.13;;;8.20;;
19593;SDS011;9944;48.240;16.478;2023-10-19T15:38:37;11.57;;;7.65;;
19593;SDS011;9944;48.240;16.478;2023-10-19T15:42:40;11.38;;;7.75;;
19593;SDS011;9944;48.240;16.478;2023-10-19T15:46:44;12.38;;;7.88;;
19593;SDS011;9944;48.240;16.478;2023-10-19T15:50:50;9.93;;;7.30;;
19593;SDS011;9944;48.240;16.478;2023-10-19T15:54:55;10.48;;;7.10;;
19593;SDS011;9944;48.240;16.478;2023-10-19T15:58:58;11.38;;;7.53;;
19593;SDS011;9944;48.240;16.478;2023-10-19T16:03:02;10.63;;;7.40;;
19593;SDS011;9944;48.240;16.478;2023-10-19T16:07:07;12.50;;;7.63;;
19593;SDS011;9944;48.240;16.478;2023-10-19T16:11:13;10.90;;;7.70;;
19593;SDS011;9944;48.240;16.478;2023-10-19T16:15:16;13.80;;;8.77;;
19593;SDS011;9944;48.240;16.478;2023-10-19T16:19:20;13.88;;;8.60;;
19593;SDS011;9944;48.240;16.478;2023-10-19T16:23:25;11.43;;;8.10;;
19593;SDS011;9944;48.240;16.478;2023-10-19T16:27:30;12.07;;;8.00;;
19593;SDS011;9944;48.240;16.478;2023-10-19T16:31:34;12.45;;;8.43;;
19593;SDS011;9944;48.240;16.478;2023-10-19T16:35:38;11.65;;;8.13;;
19593;SDS011;9944;48.240;16.478;2023-10-19T16:39:41;15.40;;;8.52;;
19593;SDS011;9944;48.240;16.478;2023-10-19T16:43:46;15.18;;;9.48;;
19593;SDS011;9944;48.240;16.478;2023-10-19T16:47:49;11.65;;;8.32;;
19593;SDS011;9944;48.240;16.478;2023-10-19T16:51:52;12.80;;;8.30;;
19593;SDS011;9944;48.240;16.478;2023-10-19T16:55:56;14.25;;;9.38;;
19593;SDS011;9944;48.240;16.478;2023-10-19T17:00:02;12.65;;;8.50;;
19593;SDS011;9944;48.240;16.478;2023-10-19T17:04:05;11.65;;;8.05;;
19593;SDS011;9944;48.240;16.478;2023-10-19T17:08:09;13.35;;;8.70;;
19593;SDS011;9944;48.240;16.478;2023-10-19T17:12:12;11.43;;;8.10;;
19593;SDS011;9944;48.240;16.478;2023-10-19T17:16:16;13.70;;;8.85;;
19593;SDS011;9944;48.240;16.478;2023-10-19T17:20:20;15.93;;;10.55;;
19593;SDS011;9944;48.240;16.478;2023-10-19T17:24:24;14.05;;;9.77;;
19593;SDS011;9944;48.240;16.478;2023-10-19T17:28:27;15.23;;;10.35;;
19593;SDS011;9944;48.240;16.478;2023-10-19T17:32:31;13.48;;;9.30;;
19593;SDS011;9944;48.240;16.478;2023-10-19T17:36:36;14.27;;;9.60;;
19593;SDS011;9944;48.240;16.478;2023-10-19T17:40:39;13.98;;;9.30;;
19593;SDS011;9944;48.240;16.478;2023-10-19T17:44:42;15.98;;;10.02;;
19593;SDS011;9944;48.240;16.478;2023-10-19T17:48:47;14.85;;;9.63;;
19593;SDS011;9944;48.240;16.478;2023-10-19T17:52:50;16.58;;;11.02;;
19593;SDS011;9944;48.240;16.478;2023-10-19T17:56:53;14.43;;;8.55;;
19593;SDS011;9944;48.240;16.478;2023-10-19T18:00:56;14.45;;;9.85;;
19593;SDS011;9944;48.240;16.478;2023-10-19T18:05:02;15.02;;;10.50;;
19593;SDS011;9944;48.240;16.478;2023-10-19T18:09:05;14.75;;;10.10;;
19593;SDS011;9944;48.240;16.478;2023-10-19T18:13:10;18.13;;;9.85;;
19593;SDS011;9944;48.240;16.478;2023-10-19T18:17:13;14.82;;;9.32;;
19593;SDS011;9944;48.240;16.478;2023-10-19T18:21:18;16.08;;;10.30;;
19593;SDS011;9944;48.240;16.478;2023-10-19T18:25:21;14.63;;;10.02;;
19593;SDS011;9944;48.240;16.478;2023-10-19T18:29:26;15.27;;;9.52;;
19593;SDS011;9944;48.240;16.478;2023-10-19T18:33:29;14.98;;;9.88;;
19593;SDS011;9944;48.240;16.478;2023-10-19T18:37:34;14.45;;;9.60;;
19593;SDS011;9944;48.240;16.478;2023-10-19T18:41:38;12.77;;;9.70;;
19593;SDS011;9944;48.240;16.478;2023-10-19T18:45:41;17.42;;;10.25;;
19593;SDS011;9944;48.240;16.478;2023-10-19T18:49:44;17.10;;;11.23;;
19593;SDS011;9944;48.240;16.478;2023-10-19T18:53:49;16.30;;;10.38;;
19593;SDS011;9944;48.240;16.478;2023-10-19T18:57:51;17.23;;;10.55;;
19593;SDS011;9944;48.240;16.478;2023-10-19T19:01:57;17.27;;;10.35;;
19593;SDS011;9944;48.240;16.478;2023-10-19T19:06:01;15.32;;;9.98;;
19593;SDS011;9944;48.240;16.478;2023-10-19T19:10:07;17.17;;;10.70;;
19593;SDS011;9944;48.240;16.478;2023-10-19T19:14:12;16.08;;;10.60;;
19593;SDS011;9944;48.240;16.478;2023-10-19T19:18:16;17.83;;;10.00;;
19593;SDS011;9944;48.240;16.478;2023-10-19T19:22:19;14.82;;;10.18;;
19593;SDS011;9944;48.240;16.478;2023-10-19T19:26:24;17.17;;;11.05;;
19593;SDS011;9944;48.240;16.478;2023-10-19T19:30:27;15.57;;;10.55;;
19593;SDS011;9944;48.240;16.478;2023-10-19T19:34:30;13.05;;;9.20;;
19593;SDS011;9944;48.240;16.478;2023-10-19T19:38:33;16.60;;;10.90;;
19593;SDS011;9944;48.240;16.478;2023-10-19T19:42:38;17.90;;;10.65;;
19593;SDS011;9944;48.240;16.478;2023-10-19T19:46:44;15.15;;;10.15;;
19593;SDS011;9944;48.240;16.478;2023-10-19T19:50:48;13.95;;;10.00;;
19593;SDS011;9944;48.240;16.478;2023-10-19T19:54:51;15.95;;;10.50;;
19593;SDS011;9944;48.240;16.478;2023-10-19T19:58:56;15.35;;;10.85;;
19593;SDS011;9944;48.240;16.478;2023-10-19T20:03:01;16.70;;;10.50;;
19593;SDS011;9944;48.240;16.478;2023-10-19T20:07:05;15.15;;;10.07;;
19593;SDS011;9944;48.240;16.478;2023-10-19T20:11:08;15.60;;;10.10;;
19593;SDS011;9944;48.240;16.478;2023-10-19T20:15:16;17.35;;;10.77;;
19593;SDS011;9944;48.240;16.478;2023-10-19T20:19:19;17.10;;;9.93;;
19593;SDS011;9944;48.240;16.478;2023-10-19T20:23:22;16.90;;;10.27;;
19593;SDS011;9944;48.240;16.478;2023-10-19T20:27:26;14.95;;;9.85;;
19593;SDS011;9944;48.240;16.478;2023-10-19T20:31:31;15.90;;;10.40;;
19593;SDS011;9944;48.240;16.478;2023-10-19T20:35:34;17.27;;;9.90;;
19593;SDS011;9944;48.240;16.478;2023-10-19T20:39:37;17.40;;;10.30;;
19593;SDS011;9944;48.240;16.478;2023-10-19T20:43:40;16.15;;;9.60;;
19593;SDS011;9944;48.240;16.478;2023-10-19T20:47:47;16.20;;;10.90;;
19593;SDS011;9944;48.240;16.478;2023-10-19T20:51:52;14.75;;;9.13;;
19593;SDS011;9944;48.240;16.478;2023-10-19T20:55:58;14.90;;;10.23;;
19593;SDS011;9944;48.240;16.478;2023-10-19T21:00:01;16.08;;;9.65;;
19593;SDS011;9944;48.240;16.478;2023-10-19T21:04:08;14.73;;;9.88;;
19593;SDS011;9944;48.240;16.478;2023-10-19T21:08:11;15.52;;;11.02;;
19593;SDS011;9944;48.240;16.478;2023-10-19T21:12:15;15.20;;;9.23;;
19593;SDS011;9944;48.240;16.478;2023-10-19T21:16:18;17.63;;;10.57;;
19593;SDS011;9944;48.240;16.478;2023-10-19T21:20:24;15.85;;;10.02;;
19593;SDS011;9944;48.240;16.478;2023-10-19T21:24:28;16.40;;;10.43;;
19593;SDS011;9944;48.240;16.478;2023-10-19T21:28:32;14.52;;;9.35;;
19593;SDS011;9944;48.240;16.478;2023-10-19T21:32:35;14.48;;;9.77;;
19593;SDS011;9944;48.240;16.478;2023-10-19T21:36:41;15.55;;;10.13;;
19593;SDS011;9944;48.240;16.478;2023-10-19T21:40:44;16.92;;;10.45;;
19593;SDS011;9944;48.240;16.478;2023-10-19T21:44:48;14.82;;;10.02;;
19593;SDS011;9944;48.240;16.478;2023-10-19T21:48:51;12.90;;;9.10;;
19593;SDS011;9944;48.240;16.478;2023-10-19T21:52:56;14.82;;;9.80;;
19593;SDS011;9944;48.240;16.478;2023-10-19T21:56:59;15.27;;;9.65;;
19593;SDS011;9944;48.240;16.478;2023-10-19T22:01:02;15.30;;;9.90;;
19593;SDS011;9944;48.240;16.478;2023-10-19T22:05:07;13.73;;;9.55;;
19593;SDS011;9944;48.240;16.478;2023-10-19T22:09:27;13.23;;;9.35;;
19593;SDS011;9944;48.240;16.478;2023-10-19T22:13:32;14.45;;;8.82;;
19593;SDS011;9944;48.240;16.478;2023-10-19T22:17:35;14.93;;;9.93;;
19593;SDS011;9944;48.240;16.478;2023-10-19T22:21:39;13.82;;;9.75;;
19593;SDS011;9944;48.240;16.478;2023-10-19T22:25:43;16.35;;;9.88;;
19593;SDS011;9944;48.240;16.478;2023-10-19T22:29:46;15.95;;;9.90;;
19593;SDS011;9944;48.240;16.478;2023-10-19T22:33:49;17.00;;;9.93;;
19593;SDS011;9944;48.240;16.478;2023-10-19T22:37:53;16.02;;;9.63;;
19593;SDS011;9944;48.240;16.478;2023-10-19T22:41:58;14.73;;;10.10;;
19593;SDS011;9944;48.240;16.478;2023-10-19T22:46:04;14.23;;;9.55;;
19593;SDS011;9944;48.240;16.478;2023-10-19T22:50:08;13.18;;;9.27;;
19593;SDS011;9944;48.240;16.478;2023-10-19T22:54:12;15.50;;;10.10;;
19593;SDS011;9944;48.240;16.478;2023-10-19T22:58:17;14.02;;;9.63;;
19593;SDS011;9944;48.240;16.478;2023-10-19T23:02:19;13.82;;;9.52;;
19593;SDS011;9944;48.240;16.478;2023-10-19T23:06:23;14.13;;;9.80;;
19593;SDS011;9944;48.240;16.478;2023-10-19T23:10:27;14.27;;;9.13;;
19593;SDS011;9944;48.240;16.478;2023-10-19T23:14:35;14.57;;;9.38;;
19593;SDS011;9944;48.240;16.478;2023-10-19T23:18:38;13.93;;;9.70;;
19593;SDS011;9944;48.240;16.478;2023-10-19T23:22:41;14.20;;;9.82;;
19593;SDS011;9944;48.240;16.478;2023-10-19T23:26:44;15.60;;;10.18;;
19593;SDS011;9944;48.240;16.478;2023-10-19T23:30:50;13.68;;;9.05;;
19593;SDS011;9944;48.240;16.478;2023-10-19T23:34:53;13.80;;;9.30;;
19593;SDS011;9944;48.240;16.478;2023-10-19T23:38:57;14.98;;;9.85;;
19593;SDS011;9944;48.240;16.478;2023-10-19T23:43:01;16.63;;;9.77;;
19593;SDS011;9944;48.240;16.478;2023-10-19T23:47:06;15.98;;;9.77;;
19593;SDS011;9944;48.240;16.478;2023-10-19T23:51:09;12.73;;;8.82;;
19593;SDS011;9944;48.240;16.478;2023-10-19T23:55:12;16.20;;;9.93;;
19593;SDS011;9944;48.240;16.478;2023-10-19T23:59:16;14.25;;;9.50;;
